sensor_id;sensor_type;location;lat;lon;timestamp;temperature;humidity
43049;DHT22;28673;44.412;11.918;2023-06-10T00:01:46;23.90;99.90
43049;DHT22;28673;44.412;11.918;2023-06-10T00:04:15;23.80;99.90
43049;DHT22;28673;44.412;11.918;2023-06-10T00:06:45;23.80;99.90
43049;DHT22;28673;44.412;11.918;2023-06-10T00:09:14;23.70;99.90
43049;DHT22;28673;44.412;11.918;2023-06-10T00:11:40;23.70;99.90
43049;DHT22;28673;44.412;11.918;2023-06-10T00:14:07;23.60;99.90
43049;DHT22;28673;44.412;11.918;2023-06-10T00:16:33;23.60;99.90
43049;DHT22;28673;44.412;11.918;2023-06-10T00:19:00;23.50;99.90
43049;DHT22;28673;44.412;11.918;2023-06-10T00:21:31;23.50;99.90
43049;DHT22;28673;44.412;11.918;2023-06-10T00:24:08;23.50;99.90
43049;DHT22;28673;44.412;11.918;2023-06-10T00:26:38;23.40;99.90
43049;DHT22;28673;44.412;11.918;2023-06-10T00:29:05;23.40;99.90
43049;DHT22;28673;44.412;11.918;2023-06-10T00:31:31;23.30;99.90
43049;DHT22;28673;44.412;11.918;2023-06-10T00:33:58;23.30;99.90
43049;DHT22;28673;44.412;11.918;2023-06-10T00:36:24;23.20;99.90
43049;DHT22;28673;44.412;11.918;2023-06-10T00:38:50;23.10;99.90
43049;DHT22;28673;44.412;11.918;2023-06-10T00:41:16;23.10;99.90
43049;DHT22;28673;44.412;11.918;2023-06-10T00:43:43;23.00;99.90
43049;DHT22;28673;44.412;11.918;2023-06-10T00:46:10;23.00;99.90
43049;DHT22;28673;44.412;11.918;2023-06-10T00:48:38;23.00;99.90
43049;DHT22;28673;44.412;11.918;2023-06-10T00:51:05;22.90;99.90
43049;DHT22;28673;44.412;11.918;2023-06-10T00:53:32;22.80;99.90
43049;DHT22;28673;44.412;11.918;2023-06-10T00:55:59;22.70;99.90
43049;DHT22;28673;44.412;11.918;2023-06-10T00:58:25;22.60;99.90
43049;DHT22;28673;44.412;11.918;2023-06-10T01:00:51;22.70;99.90
43049;DHT22;28673;44.412;11.918;2023-06-10T01:03:17;22.60;99.90
43049;DHT22;28673;44.412;11.918;2023-06-10T01:05:54;22.50;99.90
43049;DHT22;28673;44.412;11.918;2023-06-10T01:09:24;22.50;99.90
43049;DHT22;28673;44.412;11.918;2023-06-10T01:11:55;22.40;99.90
43049;DHT22;28673;44.412;11.918;2023-06-10T01:14:23;22.30;99.90
43049;DHT22;28673;44.412;11.918;2023-06-10T01:16:51;22.30;99.90
43049;DHT22;28673;44.412;11.918;2023-06-10T01:19:18;22.30;99.90
43049;DHT22;28673;44.412;11.918;2023-06-10T01:21:44;22.20;99.90
43049;DHT22;28673;44.412;11.918;2023-06-10T01:24:14;22.20;99.90
43049;DHT22;28673;44.412;11.918;2023-06-10T01:26:45;22.20;99.90
43049;DHT22;28673;44.412;11.918;2023-06-10T01:29:20;22.20;99.90
43049;DHT22;28673;44.412;11.918;2023-06-10T01:32:06;22.10;99.90
43049;DHT22;28673;44.412;11.918;2023-06-10T01:34:35;22.10;99.90
43049;DHT22;28673;44.412;11.918;2023-06-10T01:37:04;22.10;99.90
43049;DHT22;28673;44.412;11.918;2023-06-10T01:39:31;22.10;99.90
43049;DHT22;28673;44.412;11.918;2023-06-10T01:41:58;22.10;99.90
43049;DHT22;28673;44.412;11.918;2023-06-10T01:44:24;22.10;99.90
43049;DHT22;28673;44.412;11.918;2023-06-10T01:46:50;22.00;99.90
43049;DHT22;28673;44.412;11.918;2023-06-10T01:49:16;22.00;99.90
43049;DHT22;28673;44.412;11.918;2023-06-10T01:51:43;22.00;99.90
43049;DHT22;28673;44.412;11.918;2023-06-10T01:54:09;22.00;99.90
43049;DHT22;28673;44.412;11.918;2023-06-10T01:56:34;22.00;99.90
43049;DHT22;28673;44.412;11.918;2023-06-10T01:59:01;22.00;99.90
43049;DHT22;28673;44.412;11.918;2023-06-10T02:01:27;22.00;99.90
43049;DHT22;28673;44.412;11.918;2023-06-10T02:03:53;22.00;99.90
43049;DHT22;28673;44.412;11.918;2023-06-10T02:06:19;22.00;99.90
43049;DHT22;28673;44.412;11.918;2023-06-10T02:08:45;22.00;99.90
43049;DHT22;28673;44.412;11.918;2023-06-10T02:11:11;22.00;99.90
43049;DHT22;28673;44.412;11.918;2023-06-10T02:13:38;22.00;99.90
43049;DHT22;28673;44.412;11.918;2023-06-10T02:16:04;22.00;99.90
43049;DHT22;28673;44.412;11.918;2023-06-10T02:18:31;22.00;99.90
43049;DHT22;28673;44.412;11.918;2023-06-10T02:20:57;22.00;99.90
43049;DHT22;28673;44.412;11.918;2023-06-10T02:23:25;22.00;99.90
43049;DHT22;28673;44.412;11.918;2023-06-10T02:25:51;22.00;99.90
43049;DHT22;28673;44.412;11.918;2023-06-10T02:28:17;22.00;99.90
43049;DHT22;28673;44.412;11.918;2023-06-10T02:30:44;21.90;99.90
43049;DHT22;28673;44.412;11.918;2023-06-10T02:33:12;21.90;99.90
43049;DHT22;28673;44.412;11.918;2023-06-10T02:35:39;21.90;99.90
43049;DHT22;28673;44.412;11.918;2023-06-10T02:38:05;21.90;99.90
43049;DHT22;28673;44.412;11.918;2023-06-10T02:40:33;21.80;99.90
43049;DHT22;28673;44.412;11.918;2023-06-10T02:42:59;21.80;99.90
43049;DHT22;28673;44.412;11.918;2023-06-10T02:45:25;21.80;99.90
43049;DHT22;28673;44.412;11.918;2023-06-10T02:47:51;21.80;99.90
43049;DHT22;28673;44.412;11.918;2023-06-10T02:50:18;21.70;99.90
43049;DHT22;28673;44.412;11.918;2023-06-10T02:53:10;21.80;99.90
43049;DHT22;28673;44.412;11.918;2023-06-10T02:55:39;21.70;99.90
43049;DHT22;28673;44.412;11.918;2023-06-10T02:58:10;21.70;99.90
43049;DHT22;28673;44.412;11.918;2023-06-10T03:00:36;21.70;99.90
43049;DHT22;28673;44.412;11.918;2023-06-10T03:03:03;21.70;99.90
43049;DHT22;28673;44.412;11.918;2023-06-10T03:05:36;21.70;99.90
43049;DHT22;28673;44.412;11.918;2023-06-10T03:08:04;21.70;99.90
43049;DHT22;28673;44.412;11.918;2023-06-10T03:10:32;21.70;99.90
43049;DHT22;28673;44.412;11.918;2023-06-10T03:12:59;21.60;99.90
43049;DHT22;28673;44.412;11.918;2023-06-10T03:15:25;21.60;99.90
43049;DHT22;28673;44.412;11.918;2023-06-10T03:17:52;21.60;99.90
43049;DHT22;28673;44.412;11.918;2023-06-10T03:20:18;21.60;99.90
43049;DHT22;28673;44.412;11.918;2023-06-10T03:22:45;21.60;99.90
43049;DHT22;28673;44.412;11.918;2023-06-10T03:25:12;21.60;99.90
43049;DHT22;28673;44.412;11.918;2023-06-10T03:27:42;21.60;99.90
43049;DHT22;28673;44.412;11.918;2023-06-10T03:30:09;21.60;99.90
43049;DHT22;28673;44.412;11.918;2023-06-10T03:32:37;21.50;99.90
43049;DHT22;28673;44.412;11.918;2023-06-10T03:35:05;21.50;99.90
43049;DHT22;28673;44.412;11.918;2023-06-10T03:37:32;21.50;99.90
43049;DHT22;28673;44.412;11.918;2023-06-10T03:39:59;21.50;99.90
43049;DHT22;28673;44.412;11.918;2023-06-10T03:42:25;21.40;99.90
43049;DHT22;28673;44.412;11.918;2023-06-10T03:44:52;21.40;99.90
43049;DHT22;28673;44.412;11.918;2023-06-10T03:47:18;21.40;99.90
43049;DHT22;28673;44.412;11.918;2023-06-10T03:49:44;21.40;99.90
43049;DHT22;28673;44.412;11.918;2023-06-10T03:52:11;21.40;99.90
43049;DHT22;28673;44.412;11.918;2023-06-10T03:54:37;21.40;99.90
43049;DHT22;28673;44.412;11.918;2023-06-10T03:57:03;21.40;99.90
43049;DHT22;28673;44.412;11.918;2023-06-10T03:59:30;21.40;99.90
43049;DHT22;28673;44.412;11.918;2023-06-10T04:01:55;21.40;99.90
43049;DHT22;28673;44.412;11.918;2023-06-10T04:04:22;21.30;99.90
43049;DHT22;28673;44.412;11.918;2023-06-10T04:06:48;21.30;99.90
43049;DHT22;28673;44.412;11.918;2023-06-10T04:09:15;21.30;99.90
43049;DHT22;28673;44.412;11.918;2023-06-10T04:11:42;21.20;99.90
43049;DHT22;28673;44.412;11.918;2023-06-10T04:14:08;21.20;99.90
43049;DHT22;28673;44.412;11.918;2023-06-10T04:16:35;21.20;99.90
43049;DHT22;28673;44.412;11.918;2023-06-10T04:19:01;21.20;99.90
43049;DHT22;28673;44.412;11.918;2023-06-10T04:21:28;21.20;99.90
43049;DHT22;28673;44.412;11.918;2023-06-10T04:23:54;21.20;99.90
43049;DHT22;28673;44.412;11.918;2023-06-10T04:26:20;21.20;99.90
43049;DHT22;28673;44.412;11.918;2023-06-10T04:28:48;21.20;99.90
43049;DHT22;28673;44.412;11.918;2023-06-10T04:31:14;21.20;99.90
43049;DHT22;28673;44.412;11.918;2023-06-10T04:33:41;21.10;99.90
43049;DHT22;28673;44.412;11.918;2023-06-10T04:36:07;21.10;99.90
43049;DHT22;28673;44.412;11.918;2023-06-10T04:38:33;21.10;99.90
43049;DHT22;28673;44.412;11.918;2023-06-10T04:41:00;21.10;99.90
43049;DHT22;28673;44.412;11.918;2023-06-10T04:43:28;21.10;99.90
43049;DHT22;28673;44.412;11.918;2023-06-10T04:45:55;21.10;99.90
43049;DHT22;28673;44.412;11.918;2023-06-10T04:48:21;21.10;99.90
43049;DHT22;28673;44.412;11.918;2023-06-10T04:50:50;21.10;99.90
43049;DHT22;28673;44.412;11.918;2023-06-10T04:53:16;21.10;99.90
43049;DHT22;28673;44.412;11.918;2023-06-10T04:55:46;21.10;99.90
43049;DHT22;28673;44.412;11.918;2023-06-10T04:58:12;21.10;99.90
43049;DHT22;28673;44.412;11.918;2023-06-10T05:00:38;21.10;99.90
43049;DHT22;28673;44.412;11.918;2023-06-10T05:03:03;21.10;99.90
43049;DHT22;28673;44.412;11.918;2023-06-10T05:05:29;21.10;99.90
43049;DHT22;28673;44.412;11.918;2023-06-10T05:07:55;21.10;99.90
43049;DHT22;28673;44.412;11.918;2023-06-10T05:10:21;21.10;99.90
43049;DHT22;28673;44.412;11.918;2023-06-10T05:12:47;21.10;99.90
43049;DHT22;28673;44.412;11.918;2023-06-10T05:15:13;21.10;99.90
43049;DHT22;28673;44.412;11.918;2023-06-10T05:17:38;21.10;99.90
43049;DHT22;28673;44.412;11.918;2023-06-10T05:20:05;21.10;99.90
43049;DHT22;28673;44.412;11.918;2023-06-10T05:22:32;21.20;99.90
43049;DHT22;28673;44.412;11.918;2023-06-10T05:24:57;21.10;99.90
43049;DHT22;28673;44.412;11.918;2023-06-10T05:27:23;21.10;99.90
43049;DHT22;28673;44.412;11.918;2023-06-10T05:29:50;21.10;99.90
43049;DHT22;28673;44.412;11.918;2023-06-10T05:32:17;21.20;99.90
43049;DHT22;28673;44.412;11.918;2023-06-10T05:34:43;21.20;99.90
43049;DHT22;28673;44.412;11.918;2023-06-10T05:37:09;21.20;99.90
43049;DHT22;28673;44.412;11.918;2023-06-10T05:39:36;21.20;99.90
43049;DHT22;28673;44.412;11.918;2023-06-10T05:42:07;21.20;99.90
43049;DHT22;28673;44.412;11.918;2023-06-10T05:44:33;21.20;99.90
43049;DHT22;28673;44.412;11.918;2023-06-10T05:46:59;21.30;99.90
43049;DHT22;28673;44.412;11.918;2023-06-10T05:49:25;21.30;99.90
43049;DHT22;28673;44.412;11.918;2023-06-10T05:51:51;21.30;99.90
43049;DHT22;28673;44.412;11.918;2023-06-10T05:54:18;21.30;99.90
43049;DHT22;28673;44.412;11.918;2023-06-10T05:56:44;21.40;99.90
43049;DHT22;28673;44.412;11.918;2023-06-10T05:59:10;21.40;99.90
43049;DHT22;28673;44.412;11.918;2023-06-10T06:01:36;21.40;99.90
43049;DHT22;28673;44.412;11.918;2023-06-10T06:04:02;21.40;99.90
43049;DHT22;28673;44.412;11.918;2023-06-10T06:06:28;21.50;99.90
43049;DHT22;28673;44.412;11.918;2023-06-10T06:08:54;21.50;99.90
43049;DHT22;28673;44.412;11.918;2023-06-10T06:11:20;21.60;99.90
43049;DHT22;28673;44.412;11.918;2023-06-10T06:13:45;21.60;99.90
43049;DHT22;28673;44.412;11.918;2023-06-10T06:16:13;21.60;99.90
43049;DHT22;28673;44.412;11.918;2023-06-10T06:18:39;21.60;99.90
43049;DHT22;28673;44.412;11.918;2023-06-10T06:21:05;21.70;99.90
43049;DHT22;28673;44.412;11.918;2023-06-10T06:23:31;21.70;99.90
43049;DHT22;28673;44.412;11.918;2023-06-10T06:25:57;21.70;99.90
43049;DHT22;28673;44.412;11.918;2023-06-10T06:28:23;21.70;99.90
43049;DHT22;28673;44.412;11.918;2023-06-10T06:30:57;21.70;99.90
43049;DHT22;28673;44.412;11.918;2023-06-10T06:33:23;21.70;99.90
43049;DHT22;28673;44.412;11.918;2023-06-10T06:35:49;21.70;99.90
43049;DHT22;28673;44.412;11.918;2023-06-10T06:38:15;21.70;99.90
43049;DHT22;28673;44.412;11.918;2023-06-10T06:40:41;21.70;99.90
43049;DHT22;28673;44.412;11.918;2023-06-10T06:43:07;21.70;99.90
43049;DHT22;28673;44.412;11.918;2023-06-10T06:45:52;21.70;99.90
43049;DHT22;28673;44.412;11.918;2023-06-10T06:48:17;21.70;99.90
43049;DHT22;28673;44.412;11.918;2023-06-10T06:50:43;21.70;99.90
43049;DHT22;28673;44.412;11.918;2023-06-10T06:53:09;21.80;99.90
43049;DHT22;28673;44.412;11.918;2023-06-10T06:55:35;21.80;99.90
43049;DHT22;28673;44.412;11.918;2023-06-10T06:58:01;21.80;99.90
43049;DHT22;28673;44.412;11.918;2023-06-10T07:00:30;21.80;99.90
43049;DHT22;28673;44.412;11.918;2023-06-10T07:02:56;21.90;99.90
43049;DHT22;28673;44.412;11.918;2023-06-10T07:05:23;21.90;99.90
43049;DHT22;28673;44.412;11.918;2023-06-10T07:07:50;22.00;99.90
43049;DHT22;28673;44.412;11.918;2023-06-10T07:10:23;22.10;99.90
43049;DHT22;28673;44.412;11.918;2023-06-10T07:12:51;22.10;99.90
43049;DHT22;28673;44.412;11.918;2023-06-10T07:15:17;22.20;99.90
43049;DHT22;28673;44.412;11.918;2023-06-10T07:17:43;22.30;99.90
43049;DHT22;28673;44.412;11.918;2023-06-10T07:20:10;22.40;99.90
43049;DHT22;28673;44.412;11.918;2023-06-10T07:22:36;22.50;99.90
43049;DHT22;28673;44.412;11.918;2023-06-10T07:25:05;22.70;99.90
43049;DHT22;28673;44.412;11.918;2023-06-10T07:27:31;22.80;99.90
43049;DHT22;28673;44.412;11.918;2023-06-10T07:29:57;23.00;99.90
43049;DHT22;28673;44.412;11.918;2023-06-10T07:32:23;23.10;99.90
43049;DHT22;28673;44.412;11.918;2023-06-10T07:34:50;23.20;99.90
43049;DHT22;28673;44.412;11.918;2023-06-10T07:37:16;23.40;99.90
43049;DHT22;28673;44.412;11.918;2023-06-10T07:39:42;23.50;99.90
43049;DHT22;28673;44.412;11.918;2023-06-10T07:42:08;23.50;99.90
43049;DHT22;28673;44.412;11.918;2023-06-10T07:44:38;23.60;99.90
43049;DHT22;28673;44.412;11.918;2023-06-10T07:47:04;23.70;99.90
43049;DHT22;28673;44.412;11.918;2023-06-10T07:49:30;23.80;99.90
43049;DHT22;28673;44.412;11.918;2023-06-10T07:51:57;23.90;99.90
43049;DHT22;28673;44.412;11.918;2023-06-10T07:54:23;24.00;99.90
43049;DHT22;28673;44.412;11.918;2023-06-10T07:56:49;24.00;99.90
43049;DHT22;28673;44.412;11.918;2023-06-10T07:59:16;24.00;99.90
43049;DHT22;28673;44.412;11.918;2023-06-10T08:01:41;24.00;99.90
43049;DHT22;28673;44.412;11.918;2023-06-10T08:04:08;24.00;99.90
43049;DHT22;28673;44.412;11.918;2023-06-10T08:06:34;24.00;99.90
43049;DHT22;28673;44.412;11.918;2023-06-10T08:09:02;24.00;99.90
43049;DHT22;28673;44.412;11.918;2023-06-10T08:11:29;23.90;99.90
43049;DHT22;28673;44.412;11.918;2023-06-10T08:13:55;23.80;99.90
43049;DHT22;28673;44.412;11.918;2023-06-10T08:16:21;23.80;99.90
43049;DHT22;28673;44.412;11.918;2023-06-10T08:18:47;23.80;99.90
43049;DHT22;28673;44.412;11.918;2023-06-10T08:21:13;23.80;99.90
43049;DHT22;28673;44.412;11.918;2023-06-10T08:23:38;23.70;99.90
43049;DHT22;28673;44.412;11.918;2023-06-10T08:26:05;23.70;99.90
43049;DHT22;28673;44.412;11.918;2023-06-10T08:28:31;23.60;99.90
43049;DHT22;28673;44.412;11.918;2023-06-10T08:30:57;23.70;99.90
43049;DHT22;28673;44.412;11.918;2023-06-10T08:33:24;23.70;99.90
43049;DHT22;28673;44.412;11.918;2023-06-10T08:35:50;23.70;99.90
43049;DHT22;28673;44.412;11.918;2023-06-10T08:38:16;23.70;99.90
43049;DHT22;28673;44.412;11.918;2023-06-10T08:40:41;23.90;99.90
43049;DHT22;28673;44.412;11.918;2023-06-10T08:43:14;23.90;99.90
43049;DHT22;28673;44.412;11.918;2023-06-10T08:45:43;24.00;99.90
43049;DHT22;28673;44.412;11.918;2023-06-10T08:48:11;24.10;99.90
43049;DHT22;28673;44.412;11.918;2023-06-10T08:50:39;24.20;99.90
43049;DHT22;28673;44.412;11.918;2023-06-10T08:53:07;24.40;99.90
43049;DHT22;28673;44.412;11.918;2023-06-10T08:55:36;24.50;99.90
43049;DHT22;28673;44.412;11.918;2023-06-10T08:58:03;24.60;99.90
43049;DHT22;28673;44.412;11.918;2023-06-10T09:00:31;24.70;99.90
43049;DHT22;28673;44.412;11.918;2023-06-10T09:02:57;24.80;99.90
43049;DHT22;28673;44.412;11.918;2023-06-10T09:05:24;24.90;99.90
43049;DHT22;28673;44.412;11.918;2023-06-10T09:07:52;25.00;99.90
43049;DHT22;28673;44.412;11.918;2023-06-10T09:10:18;25.10;99.90
43049;DHT22;28673;44.412;11.918;2023-06-10T09:12:44;25.10;99.90
43049;DHT22;28673;44.412;11.918;2023-06-10T09:15:10;25.10;99.90
43049;DHT22;28673;44.412;11.918;2023-06-10T09:17:38;25.20;99.90
43049;DHT22;28673;44.412;11.918;2023-06-10T09:20:07;25.20;99.90
43049;DHT22;28673;44.412;11.918;2023-06-10T09:22:37;25.30;99.90
43049;DHT22;28673;44.412;11.918;2023-06-10T09:25:10;25.30;99.90
43049;DHT22;28673;44.412;11.918;2023-06-10T09:27:50;25.50;99.90
43049;DHT22;28673;44.412;11.918;2023-06-10T09:30:32;25.70;99.90
43049;DHT22;28673;44.412;11.918;2023-06-10T09:33:09;25.80;99.90
43049;DHT22;28673;44.412;11.918;2023-06-10T09:35:35;25.90;99.90
43049;DHT22;28673;44.412;11.918;2023-06-10T09:38:01;25.90;99.90
43049;DHT22;28673;44.412;11.918;2023-06-10T09:40:28;26.00;99.90
43049;DHT22;28673;44.412;11.918;2023-06-10T09:42:59;26.00;99.90
43049;DHT22;28673;44.412;11.918;2023-06-10T09:45:32;26.20;99.90
43049;DHT22;28673;44.412;11.918;2023-06-10T09:47:58;26.30;99.90
43049;DHT22;28673;44.412;11.918;2023-06-10T09:50:25;26.30;99.90
43049;DHT22;28673;44.412;11.918;2023-06-10T09:52:51;26.30;99.90
43049;DHT22;28673;44.412;11.918;2023-06-10T09:55:17;26.30;99.90
43049;DHT22;28673;44.412;11.918;2023-06-10T09:57:44;26.30;99.90
43049;DHT22;28673;44.412;11.918;2023-06-10T10:00:22;26.40;99.90
43049;DHT22;28673;44.412;11.918;2023-06-10T10:02:50;26.60;99.90
43049;DHT22;28673;44.412;11.918;2023-06-10T10:05:18;26.70;99.90
43049;DHT22;28673;44.412;11.918;2023-06-10T10:07:47;26.80;99.90
43049;DHT22;28673;44.412;11.918;2023-06-10T10:10:19;27.00;99.90
43049;DHT22;28673;44.412;11.918;2023-06-10T10:12:47;27.20;99.90
43049;DHT22;28673;44.412;11.918;2023-06-10T10:15:12;27.30;99.90
43049;DHT22;28673;44.412;11.918;2023-06-10T10:18:09;27.50;99.90
43049;DHT22;28673;44.412;11.918;2023-06-10T10:20:42;27.80;99.90
43049;DHT22;28673;44.412;11.918;2023-06-10T10:23:12;28.20;99.90
43049;DHT22;28673;44.412;11.918;2023-06-10T10:25:40;28.40;99.90
43049;DHT22;28673;44.412;11.918;2023-06-10T10:28:10;28.60;99.90
43049;DHT22;28673;44.412;11.918;2023-06-10T10:30:49;28.80;99.90
43049;DHT22;28673;44.412;11.918;2023-06-10T10:34:00;29.10;99.90
43049;DHT22;28673;44.412;11.918;2023-06-10T10:36:27;29.20;99.90
43049;DHT22;28673;44.412;11.918;2023-06-10T10:38:54;29.30;99.90
43049;DHT22;28673;44.412;11.918;2023-06-10T10:41:21;29.30;99.90
43049;DHT22;28673;44.412;11.918;2023-06-10T10:43:48;29.50;99.90
43049;DHT22;28673;44.412;11.918;2023-06-10T10:46:16;29.70;99.90
43049;DHT22;28673;44.412;11.918;2023-06-10T10:48:43;29.90;99.40
43049;DHT22;28673;44.412;11.918;2023-06-10T10:51:10;29.90;99.70
43049;DHT22;28673;44.412;11.918;2023-06-10T10:53:40;30.00;99.90
43049;DHT22;28673;44.412;11.918;2023-06-10T10:56:15;30.10;98.50
43049;DHT22;28673;44.412;11.918;2023-06-10T10:59:04;30.20;98.10
43049;DHT22;28673;44.412;11.918;2023-06-10T11:01:41;30.20;97.70
43049;DHT22;28673;44.412;11.918;2023-06-10T11:04:08;30.20;98.30
43049;DHT22;28673;44.412;11.918;2023-06-10T11:06:37;30.20;98.10
43049;DHT22;28673;44.412;11.918;2023-06-10T11:09:29;30.10;98.00
43049;DHT22;28673;44.412;11.918;2023-06-10T11:11:57;30.10;97.80
43049;DHT22;28673;44.412;11.918;2023-06-10T11:14:30;30.10;97.50
43049;DHT22;28673;44.412;11.918;2023-06-10T11:16:59;30.00;97.40
43049;DHT22;28673;44.412;11.918;2023-06-10T11:19:51;29.90;97.70
43049;DHT22;28673;44.412;11.918;2023-06-10T11:22:17;29.90;97.60
43049;DHT22;28673;44.412;11.918;2023-06-10T11:24:50;30.00;97.60
43049;DHT22;28673;44.412;11.918;2023-06-10T11:32:29;30.00;96.90
43049;DHT22;28673;44.412;11.918;2023-06-10T11:34:57;30.00;97.00
43049;DHT22;28673;44.412;11.918;2023-06-10T11:37:23;30.00;97.00
43049;DHT22;28673;44.412;11.918;2023-06-10T11:39:56;30.00;96.90
43049;DHT22;28673;44.412;11.918;2023-06-10T11:42:22;30.00;96.70
43049;DHT22;28673;44.412;11.918;2023-06-10T11:44:53;30.10;96.50
43049;DHT22;28673;44.412;11.918;2023-06-10T11:47:19;30.20;96.50
43049;DHT22;28673;44.412;11.918;2023-06-10T11:49:51;30.40;96.40
43049;DHT22;28673;44.412;11.918;2023-06-10T11:52:30;30.70;96.10
43049;DHT22;28673;44.412;11.918;2023-06-10T11:55:04;30.90;95.20
43049;DHT22;28673;44.412;11.918;2023-06-10T11:57:34;31.00;95.40
43049;DHT22;28673;44.412;11.918;2023-06-10T12:00:07;31.10;94.90
43049;DHT22;28673;44.412;11.918;2023-06-10T12:02:37;31.20;95.10
43049;DHT22;28673;44.412;11.918;2023-06-10T12:05:13;31.20;94.80
43049;DHT22;28673;44.412;11.918;2023-06-10T12:07:39;31.20;94.60
43049;DHT22;28673;44.412;11.918;2023-06-10T12:10:05;31.10;94.70
43049;DHT22;28673;44.412;11.918;2023-06-10T12:12:31;31.20;95.00
43049;DHT22;28673;44.412;11.918;2023-06-10T12:14:58;31.20;95.70
43049;DHT22;28673;44.412;11.918;2023-06-10T12:17:37;31.10;96.20
43049;DHT22;28673;44.412;11.918;2023-06-10T12:20:06;31.30;95.90
43049;DHT22;28673;44.412;11.918;2023-06-10T12:22:43;31.50;96.20
43049;DHT22;28673;44.412;11.918;2023-06-10T12:25:10;31.70;95.00
43049;DHT22;28673;44.412;11.918;2023-06-10T12:27:38;31.80;95.20
43049;DHT22;28673;44.412;11.918;2023-06-10T12:30:05;31.80;95.40
43049;DHT22;28673;44.412;11.918;2023-06-10T12:32:44;31.80;94.70
43049;DHT22;28673;44.412;11.918;2023-06-10T12:35:12;32.10;94.40
43049;DHT22;28673;44.412;11.918;2023-06-10T12:37:40;32.40;94.20
43049;DHT22;28673;44.412;11.918;2023-06-10T12:40:06;32.80;93.60
43049;DHT22;28673;44.412;11.918;2023-06-10T12:42:36;33.20;93.00
43049;DHT22;28673;44.412;11.918;2023-06-10T12:45:03;33.60;92.50
43049;DHT22;28673;44.412;11.918;2023-06-10T12:47:31;34.00;92.30
43049;DHT22;28673;44.412;11.918;2023-06-10T12:49:59;34.00;91.80
43049;DHT22;28673;44.412;11.918;2023-06-10T12:52:25;33.80;92.20
43049;DHT22;28673;44.412;11.918;2023-06-10T12:54:52;33.70;92.50
43049;DHT22;28673;44.412;11.918;2023-06-10T12:57:18;33.60;92.60
43049;DHT22;28673;44.412;11.918;2023-06-10T12:59:43;33.60;91.90
43049;DHT22;28673;44.412;11.918;2023-06-10T13:02:16;33.60;91.80
43049;DHT22;28673;44.412;11.918;2023-06-10T13:04:49;33.60;91.70
43049;DHT22;28673;44.412;11.918;2023-06-10T13:07:15;33.60;91.20
43049;DHT22;28673;44.412;11.918;2023-06-10T13:09:41;33.60;91.50
43049;DHT22;28673;44.412;11.918;2023-06-10T13:12:09;33.60;91.60
43049;DHT22;28673;44.412;11.918;2023-06-10T13:14:41;33.80;92.00
43049;DHT22;28673;44.412;11.918;2023-06-10T13:17:07;34.00;91.40
43049;DHT22;28673;44.412;11.918;2023-06-10T13:19:33;34.10;91.40
43049;DHT22;28673;44.412;11.918;2023-06-10T13:21:59;34.30;91.20
43049;DHT22;28673;44.412;11.918;2023-06-10T13:24:25;34.40;91.00
43049;DHT22;28673;44.412;11.918;2023-06-10T13:26:52;34.50;90.70
43049;DHT22;28673;44.412;11.918;2023-06-10T13:29:19;34.70;90.40
43049;DHT22;28673;44.412;11.918;2023-06-10T13:31:45;35.00;90.50
43049;DHT22;28673;44.412;11.918;2023-06-10T13:34:12;35.40;90.00
43049;DHT22;28673;44.412;11.918;2023-06-10T13:36:37;35.70;89.20
43049;DHT22;28673;44.412;11.918;2023-06-10T13:39:03;35.80;88.80
43049;DHT22;28673;44.412;11.918;2023-06-10T13:41:30;35.70;88.60
43049;DHT22;28673;44.412;11.918;2023-06-10T13:43:58;35.50;88.90
43049;DHT22;28673;44.412;11.918;2023-06-10T13:46:25;35.40;89.20
43049;DHT22;28673;44.412;11.918;2023-06-10T13:48:52;35.40;88.80
43049;DHT22;28673;44.412;11.918;2023-06-10T13:51:17;35.40;88.60
43049;DHT22;28673;44.412;11.918;2023-06-10T13:53:44;35.20;88.90
43049;DHT22;28673;44.412;11.918;2023-06-10T13:56:11;35.00;89.40
43049;DHT22;28673;44.412;11.918;2023-06-10T13:58:37;34.90;89.30
43049;DHT22;28673;44.412;11.918;2023-06-10T14:01:05;34.70;89.40
43049;DHT22;28673;44.412;11.918;2023-06-10T14:03:31;34.70;89.00
43049;DHT22;28673;44.412;11.918;2023-06-10T14:05:57;34.50;88.80
43049;DHT22;28673;44.412;11.918;2023-06-10T14:08:23;34.40;89.50
43049;DHT22;28673;44.412;11.918;2023-06-10T14:10:49;34.30;89.20
43049;DHT22;28673;44.412;11.918;2023-06-10T14:13:17;34.00;88.80
43049;DHT22;28673;44.412;11.918;2023-06-10T14:15:43;33.80;88.90
43049;DHT22;28673;44.412;11.918;2023-06-10T14:18:09;33.30;88.80
43049;DHT22;28673;44.412;11.918;2023-06-10T14:20:35;33.00;90.10
43049;DHT22;28673;44.412;11.918;2023-06-10T14:23:01;32.70;90.30
43049;DHT22;28673;44.412;11.918;2023-06-10T14:25:27;32.40;90.50
43049;DHT22;28673;44.412;11.918;2023-06-10T14:27:52;32.20;90.70
43049;DHT22;28673;44.412;11.918;2023-06-10T14:30:19;32.10;91.00
43049;DHT22;28673;44.412;11.918;2023-06-10T14:32:45;31.90;91.10
43049;DHT22;28673;44.412;11.918;2023-06-10T14:35:11;31.70;91.20
43049;DHT22;28673;44.412;11.918;2023-06-10T14:37:37;31.50;91.40
43049;DHT22;28673;44.412;11.918;2023-06-10T14:40:04;31.40;91.40
43049;DHT22;28673;44.412;11.918;2023-06-10T14:42:31;31.30;91.20
43049;DHT22;28673;44.412;11.918;2023-06-10T14:44:58;31.00;91.30
43049;DHT22;28673;44.412;11.918;2023-06-10T14:47:24;30.90;91.50
43049;DHT22;28673;44.412;11.918;2023-06-10T14:49:50;30.70;91.60
43049;DHT22;28673;44.412;11.918;2023-06-10T14:52:16;30.50;91.60
43049;DHT22;28673;44.412;11.918;2023-06-10T14:54:42;30.30;91.80
43049;DHT22;28673;44.412;11.918;2023-06-10T14:57:08;30.20;91.80
43049;DHT22;28673;44.412;11.918;2023-06-10T14:59:34;30.00;92.20
43049;DHT22;28673;44.412;11.918;2023-06-10T15:02:00;29.70;92.30
43049;DHT22;28673;44.412;11.918;2023-06-10T15:04:27;29.50;92.50
43049;DHT22;28673;44.412;11.918;2023-06-10T15:06:54;29.10;92.80
43049;DHT22;28673;44.412;11.918;2023-06-10T15:09:19;28.90;93.00
43049;DHT22;28673;44.412;11.918;2023-06-10T15:11:46;28.60;93.20
43049;DHT22;28673;44.412;11.918;2023-06-10T15:14:12;28.50;93.40
43049;DHT22;28673;44.412;11.918;2023-06-10T15:16:38;28.30;93.80
43049;DHT22;28673;44.412;11.918;2023-06-10T15:19:04;28.10;94.00
43049;DHT22;28673;44.412;11.918;2023-06-10T15:21:32;28.00;94.30
43049;DHT22;28673;44.412;11.918;2023-06-10T15:23:58;27.90;94.40
43049;DHT22;28673;44.412;11.918;2023-06-10T15:26:24;27.70;94.30